Time;durP1;ratioP1;P1;durP2;ratioP2;P2;SDS_P1;SDS_P2;PMS_P1;PMS_P2;Temp;Humidity;BMP_temperature;BMP_pressure;BME280_temperature;BME280_humidity;BME280_pressure;Samples;Min_cycle;Max_cycle;Signal;HPM_P1;HPM_P2
2022/01/04 00:02:53;;;;;;;2.87;0.87;;;;;;;;;;4722934;30;20529;-87
2022/01/04 00:05:57;;;;;;;2.30;1.10;;;;;;;;;;4732824;30;20191;-87
2022/01/04 00:09:03;;;;;;;2.80;1.00;;;;;;;;;;4722838;30;20215;-89
2022/01/04 00:15:32;;;;;;;3.50;1.73;;;;;;;;;;4735026;30;20187;-88
2022/01/04 00:18:37;;;;;;;2.53;1.17;;;;;;;;;;4715164;30;20187;-87
2022/01/04 00:21:42;;;;;;;3.20;1.33;;;;;;;;;;4715402;30;20191;-87
2022/01/04 00:24:46;;;;;;;2.50;1.10;;;;;;;;;;4724631;30;20219;-87
2022/01/04 00:27:50;;;;;;;1.63;1.10;;;;;;;;;;4725056;30;20184;-87
2022/01/04 00:30:54;;;;;;;2.97;1.10;;;;;;;;;;4715390;30;20188;-87
2022/01/04 00:33:58;;;;;;;5.33;1.03;;;;;;;;;;4715161;30;20235;-87
2022/01/04 00:37:03;;;;;;;3.33;1.10;;;;;;;;;;4715226;30;20199;-87
2022/01/04 00:40:08;;;;;;;3.20;1.20;;;;;;;;;;4714830;30;20187;-87
2022/01/04 00:43:12;;;;;;;2.43;1.00;;;;;;;;;;4724545;30;20225;-87
2022/01/04 00:46:17;;;;;;;2.20;1.00;;;;;;;;;;4714709;30;20192;-87
2022/01/04 00:49:22;;;;;;;2.57;1.33;;;;;;;;;;4718071;30;20231;-87
2022/01/04 00:52:26;;;;;;;2.80;0.90;;;;;;;;;;4718361;30;20200;-87
2022/01/04 00:55:30;;;;;;;4.63;1.10;;;;;;;;;;4718406;30;20195;-87
2022/01/04 00:58:34;;;;;;;3.10;1.47;;;;;;;;;;4717972;30;20187;-87
2022/01/04 01:01:38;;;;;;;3.23;1.23;;;;;;;;;;4728087;30;20207;-87
2022/01/04 01:04:44;;;;;;;3.90;1.03;;;;;;;;;;4717924;30;20231;-87
2022/01/04 01:07:48;;;;;;;2.00;0.90;;;;;;;;;;4728036;30;20192;-87
2022/01/04 01:10:52;;;;;;;1.20;0.90;;;;;;;;;;4718088;30;20179;-87
2022/01/04 01:13:56;;;;;;;2.03;1.37;;;;;;;;;;4737446;30;20234;-87
2022/01/04 01:17:00;;;;;;;2.87;1.40;;;;;;;;;;4735379;30;20195;-87
2022/01/04 01:20:07;;;;;;;5.37;1.33;;;;;;;;;;4745568;30;20187;-87
2022/01/04 01:23:11;;;;;;;2.27;1.20;;;;;;;;;;4735529;30;20226;-87
2022/01/04 01:26:15;;;;;;;4.10;1.40;;;;;;;;;;4745585;30;20194;-87
2022/01/04 01:29:19;;;;;;;3.43;1.20;;;;;;;;;;4745213;30;20215;-87
2022/01/04 01:32:23;;;;;;;1.77;1.00;;;;;;;;;;4725576;30;20207;-87
2022/01/04 01:35:28;;;;;;;1.80;1.00;;;;;;;;;;4745114;30;20191;-87
2022/01/04 01:38:32;;;;;;;1.80;1.07;;;;;;;;;;4734928;30;20214;-87
2022/01/04 01:41:37;;;;;;;4.03;1.07;;;;;;;;;;4745173;30;20187;-87
2022/01/04 01:44:41;;;;;;;2.50;0.90;;;;;;;;;;4724876;30;20226;-87
2022/01/04 01:47:45;;;;;;;2.03;0.90;;;;;;;;;;4735139;30;20572;-87
2022/01/04 01:50:49;;;;;;;2.97;1.07;;;;;;;;;;4734873;30;20675;-88
2022/01/04 01:53:54;;;;;;;2.33;0.97;;;;;;;;;;4734532;30;20230;-88
2022/01/04 01:56:58;;;;;;;1.40;0.80;;;;;;;;;;4755003;30;20195;-87
2022/01/04 02:00:05;;;;;;;2.27;1.13;;;;;;;;;;4724722;30;20191;-87
2022/01/04 02:03:09;;;;;;;0.93;0.70;;;;;;;;;;4744864;30;20239;-87
2022/01/04 02:06:13;;;;;;;3.43;1.10;;;;;;;;;;4754919;30;20194;-87
2022/01/04 02:09:18;;;;;;;2.40;1.10;;;;;;;;;;4734280;30;20226;-87
2022/01/04 02:12:22;;;;;;;1.90;0.80;;;;;;;;;;4734709;30;20563;-87
2022/01/04 02:15:29;;;;;;;3.40;0.90;;;;;;;;;;4724571;30;20191;-87
2022/01/04 02:18:33;;;;;;;2.37;1.00;;;;;;;;;;4734402;30;20207;-87
2022/01/04 02:21:37;;;;;;;1.60;0.90;;;;;;;;;;4734391;30;20628;-87
2022/01/04 02:24:41;;;;;;;5.67;1.13;;;;;;;;;;4744409;30;20230;-87
2022/01/04 02:27:46;;;;;;;2.20;0.90;;;;;;;;;;4733914;30;20206;-88
2022/01/04 02:30:50;;;;;;;1.27;0.90;;;;;;;;;;4734088;30;20223;-87
2022/01/04 02:33:55;;;;;;;2.20;0.97;;;;;;;;;;4733989;30;20572;-87
2022/01/04 02:36:59;;;;;;;4.83;1.10;;;;;;;;;;4734120;30;20191;-87
2022/01/04 02:40:04;;;;;;;2.30;1.20;;;;;;;;;;4734030;30;20187;-87
2022/01/04 02:43:10;;;;;;;2.77;1.10;;;;;;;;;;4734277;30;20226;-87
2022/01/04 02:46:14;;;;;;;1.03;0.90;;;;;;;;;;4734266;30;20191;-87
2022/01/04 02:49:18;;;;;;;2.00;1.00;;;;;;;;;;4724365;30;20581;-87
2022/01/04 02:52:23;;;;;;;3.37;1.00;;;;;;;;;;4743924;30;20195;-87
2022/01/04 02:55:27;;;;;;;2.10;0.80;;;;;;;;;;4744296;30;20195;-87
2022/01/04 02:58:31;;;;;;;2.93;1.30;;;;;;;;;;4724344;30;20667;-88
2022/01/04 03:01:35;;;;;;;2.67;1.13;;;;;;;;;;4734138;30;20187;-87
2022/01/04 03:04:40;;;;;;;1.63;0.97;;;;;;;;;;4734044;30;20228;-87
2022/01/04 03:07:44;;;;;;;1.93;0.97;;;;;;;;;;4733889;30;20188;-87
2022/01/04 03:10:48;;;;;;;1.93;0.87;;;;;;;;;;4733162;30;20207;-87
2022/01/04 03:13:52;;;;;;;1.80;1.10;;;;;;;;;;4733995;30;20238;-88
2022/01/04 03:16:56;;;;;;;0.83;0.80;;;;;;;;;;4723492;30;20191;-88
2022/01/04 03:20:00;;;;;;;1.30;1.03;;;;;;;;;;4723218;30;20198;-88
2022/01/04 03:23:09;;;;;;;1.73;1.30;;;;;;;;;;4733362;30;20234;-88
2022/01/04 03:26:12;;;;;;;3.83;0.90;;;;;;;;;;4733321;30;20193;-88
2022/01/04 03:29:17;;;;;;;1.73;0.97;;;;;;;;;;4723190;30;20186;-88
2022/01/04 03:32:21;;;;;;;1.77;0.97;;;;;;;;;;4733038;30;20577;-88
2022/01/04 03:35:25;;;;;;;1.47;0.93;;;;;;;;;;4743644;30;20190;-88
2022/01/04 03:38:30;;;;;;;2.60;0.87;;;;;;;;;;4723376;30;20195;-88
2022/01/04 03:41:37;;;;;;;2.93;1.03;;;;;;;;;;4733177;30;20544;-88
2022/01/04 03:44:42;;;;;;;4.67;1.00;;;;;;;;;;4722729;30;20224;-88
2022/01/04 03:47:46;;;;;;;2.47;0.83;;;;;;;;;;4732782;30;20206;-88
2022/01/04 03:50:50;;;;;;;3.47;1.10;;;;;;;;;;4742613;30;20230;-88
2022/01/04 03:53:55;;;;;;;3.23;1.23;;;;;;;;;;4732682;30;20223;-88
2022/01/04 03:56:59;;;;;;;3.63;1.10;;;;;;;;;;4733107;30;20191;-88
2022/01/04 04:00:07;;;;;;;3.37;1.10;;;;;;;;;;4732616;30;20183;-88
2022/01/04 04:03:16;;;;;;;1.30;0.80;;;;;;;;;;4733441;30;20226;-88
2022/01/04 04:06:20;;;;;;;2.40;1.13;;;;;;;;;;4732858;30;20207;-88
2022/01/04 04:09:24;;;;;;;2.83;1.40;;;;;;;;;;4742746;30;20191;-88
2022/01/04 04:12:28;;;;;;;2.87;0.80;;;;;;;;;;4732495;30;20191;-88
2022/01/04 04:15:33;;;;;;;2.13;1.00;;;;;;;;;;4732510;30;20183;-88
2022/01/04 04:18:37;;;;;;;1.63;1.00;;;;;;;;;;4732556;30;20191;-88
2022/01/04 04:21:42;;;;;;;1.20;0.90;;;;;;;;;;4731838;30;20179;-88
2022/01/04 04:24:46;;;;;;;2.63;1.20;;;;;;;;;;4752376;30;20222;-88
2022/01/04 04:27:50;;;;;;;1.90;0.80;;;;;;;;;;4732127;30;20559;-88
2022/01/04 04:30:56;;;;;;;1.83;1.00;;;;;;;;;;4721884;30;20230;-88
2022/01/04 04:33:59;;;;;;;2.67;1.00;;;;;;;;;;4741989;30;20234;-88
2022/01/04 04:37:04;;;;;;;1.77;0.80;;;;;;;;;;4731987;30;20206;-88
2022/01/04 04:40:09;;;;;;;2.30;0.90;;;;;;;;;;4732097;30;20207;-88
2022/01/04 04:43:14;;;;;;;1.17;0.80;;;;;;;;;;4732175;30;20226;-88
2022/01/04 04:46:18;;;;;;;2.23;0.83;;;;;;;;;;4731856;30;20670;-88
2022/01/04 04:49:22;;;;;;;1.70;1.03;;;;;;;;;;4742199;30;20187;-88
2022/01/04 04:52:26;;;;;;;1.20;0.90;;;;;;;;;;4731961;30;20187;-88
2022/01/04 04:55:30;;;;;;;1.57;0.60;;;;;;;;;;4722196;30;20191;-87
2022/01/04 04:58:34;;;;;;;1.53;0.90;;;;;;;;;;4731943;30;20210;-88
2022/01/04 05:01:38;;;;;;;1.80;0.87;;;;;;;;;;4741730;30;20206;-88
2022/01/04 05:04:42;;;;;;;1.77;0.90;;;;;;;;;;4731609;30;20226;-88
2022/01/04 05:07:46;;;;;;;2.87;1.20;;;;;;;;;;4732117;30;20210;-88
2022/01/04 05:10:51;;;;;;;2.00;0.63;;;;;;;;;;4721935;30;20230;-88
2022/01/04 05:13:55;;;;;;;1.80;0.87;;;;;;;;;;4721573;30;20636;-87
2022/01/04 05:16:59;;;;;;;1.60;1.20;;;;;;;;;;4731739;30;20537;-88
2022/01/04 05:20:04;;;;;;;2.33;0.90;;;;;;;;;;4741935;30;20202;-88
2022/01/04 05:23:08;;;;;;;1.53;0.90;;;;;;;;;;4731920;30;20230;-88
2022/01/04 05:26:12;;;;;;;1.53;0.90;;;;;;;;;;4732043;30;20191;-87
2022/01/04 05:29:16;;;;;;;2.03;1.10;;;;;;;;;;4722328;30;20191;-88
2022/01/04 05:32:20;;;;;;;1.20;0.90;;;;;;;;;;4731870;30;20192;-88
2022/01/04 05:35:25;;;;;;;1.57;1.20;;;;;;;;;;4735244;30;20195;-88
2022/01/04 05:38:29;;;;;;;3.07;1.10;;;;;;;;;;4725189;30;20191;-88
2022/01/04 05:41:33;;;;;;;2.50;1.33;;;;;;;;;;4735045;30;20636;-88
2022/01/04 05:44:38;;;;;;;1.90;1.30;;;;;;;;;;4734862;30;20238;-88
2022/01/04 05:47:42;;;;;;;1.70;1.10;;;;;;;;;;4725384;30;20183;-87
2022/01/04 05:50:47;;;;;;;2.50;1.10;;;;;;;;;;4725032;30;20211;-88
2022/01/04 05:53:51;;;;;;;1.20;0.83;;;;;;;;;;4744665;30;20226;-88
2022/01/04 05:56:55;;;;;;;2.60;1.23;;;;;;;;;;4755018;30;20187;-87
2022/01/04 06:00:00;;;;;;;2.60;1.00;;;;;;;;;;4735078;30;20644;-88
2022/01/04 06:03:04;;;;;;;1.27;0.80;;;;;;;;;;4724667;30;20234;-88
2022/01/04 06:06:08;;;;;;;1.03;0.90;;;;;;;;;;4734613;30;20533;-88
2022/01/04 06:09:21;;;;;;;1.33;0.80;;;;;;;;;;4734780;30;20211;-87
2022/01/04 06:15:29;;;;;;;2.30;1.10;;;;;;;;;;4734723;30;20187;-88
2022/01/04 06:18:33;;;;;;;2.10;1.07;;;;;;;;;;4734641;30;20191;-88
2022/01/04 06:21:37;;;;;;;2.23;1.10;;;;;;;;;;4734719;30;20187;-88
2022/01/04 06:24:41;;;;;;;2.20;1.10;;;;;;;;;;4724265;30;20222;-88
2022/01/04 06:27:48;;;;;;;1.83;1.03;;;;;;;;;;4734098;30;20211;-88
2022/01/04 06:30:52;;;;;;;2.23;1.10;;;;;;;;;;4744430;30;20227;-88
2022/01/04 06:33:58;;;;;;;1.30;1.07;;;;;;;;;;4734303;30;20239;-88
2022/01/04 06:37:02;;;;;;;2.37;1.10;;;;;;;;;;4743764;30;20210;-88
2022/01/04 06:40:09;;;;;;;3.30;1.33;;;;;;;;;;4724133;30;20187;-88
2022/01/04 06:43:13;;;;;;;1.57;1.20;;;;;;;;;;4733751;30;20230;-87
2022/01/04 06:46:18;;;;;;;2.77;1.27;;;;;;;;;;4733135;30;20206;-88
2022/01/04 06:49:23;;;;;;;2.43;0.90;;;;;;;;;;4734279;30;20195;-87
2022/01/04 06:52:27;;;;;;;1.87;1.10;;;;;;;;;;4744425;30;20187;-88
2022/01/04 06:55:31;;;;;;;2.23;1.13;;;;;;;;;;4734233;30;20206;-87
2022/01/04 06:58:35;;;;;;;1.47;1.10;;;;;;;;;;4744192;30;20191;-87
2022/01/04 07:01:40;;;;;;;1.90;1.00;;;;;;;;;;4733885;30;20632;-87
2022/01/04 07:04:44;;;;;;;1.67;1.07;;;;;;;;;;4743993;30;20226;-88
2022/01/04 07:07:48;;;;;;;2.33;1.10;;;;;;;;;;4733620;30;20581;-88
2022/01/04 07:10:52;;;;;;;3.70;1.27;;;;;;;;;;4733398;30;20230;-87
2022/01/04 07:13:56;;;;;;;2.30;1.20;;;;;;;;;;4723612;30;20723;-87
2022/01/04 07:17:01;;;;;;;2.87;2.10;;;;;;;;;;4733663;30;20195;-88
2022/01/04 07:20:05;;;;;;;2.57;1.70;;;;;;;;;;4733351;30;20191;-88
2022/01/04 07:23:09;;;;;;;6.17;2.40;;;;;;;;;;4742906;30;20222;-88
2022/01/04 07:26:14;;;;;;;3.70;1.70;;;;;;;;;;4733309;30;20211;-88
2022/01/04 07:29:19;;;;;;;3.67;1.50;;;;;;;;;;4732991;30;20195;-88
2022/01/04 07:32:22;;;;;;;6.50;1.40;;;;;;;;;;4743258;30;20210;-88
2022/01/04 07:35:27;;;;;;;1.87;1.00;;;;;;;;;;4723424;30;20191;-88
2022/01/04 07:38:31;;;;;;;2.30;0.93;;;;;;;;;;4732952;30;20349;-88
2022/01/04 07:41:35;;;;;;;1.80;1.10;;;;;;;;;;4743344;30;20183;-88
2022/01/04 07:44:39;;;;;;;1.43;1.20;;;;;;;;;;4732606;30;20226;-88
2022/01/04 07:47:43;;;;;;;1.97;1.07;;;;;;;;;;4733024;30;20191;-89
2022/01/04 07:50:47;;;;;;;1.77;1.20;;;;;;;;;;4733013;30;20668;-88
2022/01/04 07:53:52;;;;;;;4.50;2.00;;;;;;;;;;4732441;30;20234;-88
2022/01/04 07:56:56;;;;;;;4.27;1.83;;;;;;;;;;4742516;30;20195;-88
2022/01/04 08:00:00;;;;;;;18.03;11.07;;;;;;;;;;4722964;30;20631;-87
2022/01/04 08:03:06;;;;;;;17.00;11.03;;;;;;;;;;4742569;30;20218;-87
2022/01/04 08:06:10;;;;;;;18.33;11.77;;;;;;;;;;4732852;30;20183;-88
2022/01/04 08:09:14;;;;;;;19.77;12.47;;;;;;;;;;4742295;30;20564;-88
2022/01/04 08:12:19;;;;;;;16.60;11.93;;;;;;;;;;4733432;30;20214;-87
2022/01/04 08:15:23;;;;;;;5.53;4.63;;;;;;;;;;4733518;30;20183;-85
2022/01/04 08:18:27;;;;;;;6.33;5.73;;;;;;;;;;4743348;30;20262;-86
2022/01/04 08:21:31;;;;;;;3.20;2.20;;;;;;;;;;4743149;30;20185;-85
2022/01/04 08:24:35;;;;;;;3.37;3.03;;;;;;;;;;4743248;30;20222;-85
2022/01/04 08:27:40;;;;;;;4.27;3.93;;;;;;;;;;4722391;30;20195;-87
2022/01/04 08:30:44;;;;;;;2.90;2.20;;;;;;;;;;4742816;30;20199;-86
2022/01/04 08:33:48;;;;;;;5.73;4.70;;;;;;;;;;4722675;30;20222;-86
2022/01/04 08:36:52;;;;;;;3.00;2.47;;;;;;;;;;4722236;30;20196;-86
2022/01/04 08:39:56;;;;;;;6.17;5.63;;;;;;;;;;4732652;30;20198;-86
2022/01/04 08:43:01;;;;;;;4.73;4.23;;;;;;;;;;4743654;30;20222;-87
2022/01/04 08:46:05;;;;;;;2.47;2.23;;;;;;;;;;4721852;30;20203;-89
2022/01/04 08:49:09;;;;;;;6.63;5.93;;;;;;;;;;4742045;30;20202;-89
2022/01/04 08:52:13;;;;;;;10.17;8.37;;;;;;;;;;4717279;30;20594;-89
2022/01/04 08:55:17;;;;;;;4.90;4.07;;;;;;;;;;4732008;30;20660;-90
2022/01/04 08:58:22;;;;;;;4.03;3.47;;;;;;;;;;4742772;30;20186;-91
2022/01/04 09:01:26;;;;;;;9.47;6.13;;;;;;;;;;4731857;30;20198;-91
2022/01/04 09:04:30;;;;;;;3.73;2.53;;;;;;;;;;4732152;30;20222;-91
2022/01/04 09:07:34;;;;;;;7.57;6.87;;;;;;;;;;4724303;30;20192;-88
2022/01/04 09:10:38;;;;;;;13.30;7.43;;;;;;;;;;4711502;30;20195;-88
2022/01/04 09:14:27;;;;;;;4.10;3.73;;;;;;;;;;4785214;24;20237;-85
2022/01/04 09:23:25;;;;;;;2.27;2.07;;;;;;;;;;4755908;30;20203;-86
2022/01/04 09:26:35;;;;;;;1.50;1.40;;;;;;;;;;4727369;30;20208;-86
2022/01/04 09:29:46;;;;;;;1.67;1.07;;;;;;;;;;4755639;30;20191;-85
2022/01/04 09:32:55;;;;;;;3.97;1.33;;;;;;;;;;4727259;30;20215;-87
2022/01/04 09:37:41;;;;;;;8.10;3.60;;;;;;;;;;4742421;30;20204;-87
2022/01/04 09:41:01;;;;;;;3.40;1.90;;;;;;;;;;4730942;30;20211;-87
2022/01/04 09:44:05;;;;;;;3.67;2.20;;;;;;;;;;4728391;30;20232;-87
2022/01/04 09:47:09;;;;;;;1.67;1.17;;;;;;;;;;4757469;30;20218;-86
2022/01/04 09:50:47;;;;;;;2.20;1.23;;;;;;;;;;4742599;30;20195;-87
2022/01/04 09:54:41;;;;;;;1.30;0.83;;;;;;;;;;4758424;30;20215;-87
2022/01/04 09:58:11;;;;;;;7.37;5.47;;;;;;;;;;4761414;30;20544;-87
2022/01/04 10:01:22;;;;;;;1.80;1.20;;;;;;;;;;4737921;30;20203;-85
2022/01/04 10:04:26;;;;;;;2.37;1.57;;;;;;;;;;4744768;30;20222;-85
2022/01/04 10:07:30;;;;;;;2.87;1.63;;;;;;;;;;4745044;30;20195;-85
2022/01/04 10:10:42;;;;;;;4.97;3.20;;;;;;;;;;4744374;30;20191;-85
2022/01/04 10:13:47;;;;;;;2.17;1.60;;;;;;;;;;4736706;30;20227;-86
2022/01/04 10:16:53;;;;;;;4.27;2.60;;;;;;;;;;4738053;30;20192;-85
2022/01/04 10:20:00;;;;;;;2.90;2.53;;;;;;;;;;4723368;30;20195;-87
2022/01/04 10:23:25;;;;;;;2.20;1.90;;;;;;;;;;4744990;30;20548;-86
2022/01/04 10:26:37;;;;;;;0.83;0.80;;;;;;;;;;4746416;30;20191;-88
2022/01/04 10:29:41;;;;;;;1.57;0.83;;;;;;;;;;4734750;30;20199;-85
2022/01/04 10:32:49;;;;;;;1.77;0.90;;;;;;;;;;4744115;30;20698;-85
2022/01/04 10:35:56;;;;;;;1.20;0.90;;;;;;;;;;4737027;30;20191;-86
2022/01/04 10:39:07;;;;;;;2.40;0.80;;;;;;;;;;4754268;30;20192;-87
2022/01/04 10:42:11;;;;;;;1.20;0.80;;;;;;;;;;4742450;30;20188;-85
2022/01/04 10:45:29;;;;;;;2.83;1.00;;;;;;;;;;4737317;30;20223;-87
2022/01/04 10:48:42;;;;;;;2.30;2.10;;;;;;;;;;4729571;30;20192;-87
2022/01/04 10:52:04;;;;;;;1.40;1.30;;;;;;;;;;4726942;30;20692;-88
2022/01/04 10:55:13;;;;;;;1.30;1.17;;;;;;;;;;4736156;30;20231;-86
2022/01/04 10:58:24;;;;;;;4.53;1.13;;;;;;;;;;4728321;30;20192;-87
2022/01/04 11:01:37;;;;;;;1.00;0.90;;;;;;;;;;4727963;30;20653;-84
2022/01/04 11:04:43;;;;;;;3.30;1.00;;;;;;;;;;4727698;30;20235;-88
2022/01/04 11:08:04;;;;;;;2.40;0.90;;;;;;;;;;4742547;30;20194;-87
2022/01/04 11:11:09;;;;;;;1.10;0.93;;;;;;;;;;4726659;30;20196;-86
2022/01/04 11:14:13;;;;;;;1.77;1.10;;;;;;;;;;4747877;30;20227;-87
2022/01/04 11:17:18;;;;;;;1.10;0.70;;;;;;;;;;4750618;30;20545;-86
2022/01/04 11:20:22;;;;;;;0.73;0.73;;;;;;;;;;4746557;30;20195;-84
2022/01/04 11:23:32;;;;;;;3.30;0.90;;;;;;;;;;4737370;30;20223;-86
2022/01/04 11:26:40;;;;;;;1.20;0.80;;;;;;;;;;4735710;30;20200;-87
2022/01/04 11:29:46;;;;;;;1.83;0.90;;;;;;;;;;4736068;30;20207;-84
2022/01/04 11:32:55;;;;;;;1.33;1.23;;;;;;;;;;4741808;30;20211;-84
2022/01/04 11:36:00;;;;;;;3.13;1.33;;;;;;;;;;4747627;30;20207;-87
2022/01/04 11:39:31;;;;;;;1.87;1.40;;;;;;;;;;4736021;30;20207;-84
2022/01/04 11:42:38;;;;;;;2.33;1.00;;;;;;;;;;4716946;30;20561;-85
2022/01/04 11:45:48;;;;;;;0.97;0.87;;;;;;;;;;4750929;30;20207;-86
2022/01/04 11:49:07;;;;;;;2.03;1.10;;;;;;;;;;4726338;30;20204;-86
2022/01/04 11:52:50;;;;;;;2.20;1.10;;;;;;;;;;4740279;30;20214;-84
2022/01/04 11:55:57;;;;;;;2.47;1.10;;;;;;;;;;4743189;30;20199;-87
2022/01/04 11:59:19;;;;;;;1.60;1.10;;;;;;;;;;4753563;30;20214;-85
2022/01/04 12:02:27;;;;;;;1.77;1.10;;;;;;;;;;4730441;30;20199;-87
2022/01/04 12:05:32;;;;;;;1.57;0.80;;;;;;;;;;4726481;30;20192;-84
2022/01/04 12:08:40;;;;;;;1.30;0.90;;;;;;;;;;4725868;30;20214;-85
2022/01/04 12:11:46;;;;;;;1.17;0.87;;;;;;;;;;4734922;30;20192;-87
2022/01/04 12:14:51;;;;;;;1.53;0.90;;;;;;;;;;4724855;30;20247;-87
2022/01/04 12:17:57;;;;;;;6.33;1.03;;;;;;;;;;4726067;30;20183;-84
2022/01/04 12:21:15;;;;;;;1.20;0.90;;;;;;;;;;4725838;30;20188;-84
2022/01/04 12:24:24;;;;;;;1.37;1.07;;;;;;;;;;4726135;30;20232;-84
2022/01/04 12:27:28;;;;;;;1.07;0.97;;;;;;;;;;4716048;30;20187;-84
2022/01/04 12:30:32;;;;;;;1.23;1.00;;;;;;;;;;4735635;30;20636;-86
2022/01/04 12:33:36;;;;;;;1.43;0.80;;;;;;;;;;4735624;30;20712;-85
2022/01/04 12:36:42;;;;;;;1.50;0.97;;;;;;;;;;4736828;30;20196;-86
2022/01/04 12:39:48;;;;;;;1.27;0.93;;;;;;;;;;4735255;30;20184;-86
2022/01/04 12:42:54;;;;;;;1.47;1.10;;;;;;;;;;4734051;30;20553;-84
2022/01/04 12:46:01;;;;;;;2.60;0.93;;;;;;;;;;4736599;30;20207;-87
2022/01/04 12:49:11;;;;;;;2.20;0.80;;;;;;;;;;4735256;30;20191;-86
2022/01/04 12:52:17;;;;;;;11.87;6.83;;;;;;;;;;4725307;30;20219;-86
2022/01/04 12:55:21;;;;;;;1.40;1.27;;;;;;;;;;4734859;30;20207;-86
2022/01/04 12:58:25;;;;;;;1.50;1.07;;;;;;;;;;4724467;30;20211;-87
2022/01/04 13:01:31;;;;;;;2.50;1.40;;;;;;;;;;4725536;30;20210;-84
2022/01/04 13:04:36;;;;;;;1.93;1.30;;;;;;;;;;4735990;30;20220;-87
2022/01/04 13:07:41;;;;;;;1.77;1.07;;;;;;;;;;4736021;30;20184;-86
2022/01/04 13:10:45;;;;;;;1.17;1.00;;;;;;;;;;4735074;30;20188;-86
2022/01/04 13:13:54;;;;;;;1.57;1.00;;;;;;;;;;4724376;30;20243;-84
2022/01/04 13:17:03;;;;;;;2.43;1.00;;;;;;;;;;4725882;30;20207;-83
2022/01/04 13:20:08;;;;;;;1.30;1.03;;;;;;;;;;4736308;30;20188;-84
2022/01/04 13:23:14;;;;;;;2.20;1.10;;;;;;;;;;4725993;30;20192;-86
2022/01/04 13:26:26;;;;;;;2.10;1.10;;;;;;;;;;4736470;30;20187;-83
2022/01/04 13:29:31;;;;;;;1.53;1.00;;;;;;;;;;4736176;30;20204;-83
2022/01/04 13:32:41;;;;;;;1.33;1.00;;;;;;;;;;4714734;30;20216;-86
2022/01/04 13:35:48;;;;;;;2.37;1.20;;;;;;;;;;4705097;30;20200;-86
2022/01/04 13:38:57;;;;;;;2.33;0.90;;;;;;;;;;4724962;30;20565;-87
2022/01/04 13:42:03;;;;;;;4.23;1.10;;;;;;;;;;4724079;30;20199;-86
2022/01/04 13:45:21;;;;;;;1.20;0.93;;;;;;;;;;4735010;30;20231;-83
2022/01/04 13:48:34;;;;;;;1.50;1.00;;;;;;;;;;4734838;30;20188;-84
2022/01/04 13:51:40;;;;;;;1.73;1.00;;;;;;;;;;4734927;30;20196;-84
2022/01/04 13:54:45;;;;;;;1.87;1.30;;;;;;;;;;4726527;30;20219;-84
2022/01/04 13:57:49;;;;;;;2.57;0.90;;;;;;;;;;4728201;30;20212;-84
2022/01/04 14:00:53;;;;;;;1.63;1.00;;;;;;;;;;4728113;30;20191;-84
2022/01/04 14:04:14;;;;;;;2.23;1.20;;;;;;;;;;4728217;30;20218;-84
2022/01/04 14:07:18;;;;;;;2.00;0.80;;;;;;;;;;4738813;30;20192;-84
2022/01/04 14:10:48;;;;;;;1.17;0.83;;;;;;;;;;4727886;30;20187;-84
2022/01/04 14:13:53;;;;;;;3.10;1.80;;;;;;;;;;4727964;30;20247;-84
2022/01/04 14:17:06;;;;;;;2.07;1.17;;;;;;;;;;4737775;30;20184;-84
2022/01/04 14:20:12;;;;;;;6.90;0.80;;;;;;;;;;4737452;30;20653;-84
2022/01/04 14:23:37;;;;;;;1.73;0.90;;;;;;;;;;4727218;30;20227;-84
2022/01/04 14:26:41;;;;;;;2.80;0.80;;;;;;;;;;4727663;30;20638;-83
2022/01/04 14:29:57;;;;;;;4.90;1.13;;;;;;;;;;4740035;30;20653;-83
2022/01/04 14:33:03;;;;;;;0.80;0.80;;;;;;;;;;4737524;30;20231;-83
2022/01/04 14:36:07;;;;;;;4.20;0.80;;;;;;;;;;4725270;30;20207;-84
2022/01/04 14:39:11;;;;;;;1.47;1.37;;;;;;;;;;4741138;30;20202;-84
2022/01/04 14:42:16;;;;;;;1.03;0.70;;;;;;;;;;4737164;30;20199;-83
2022/01/04 14:45:20;;;;;;;1.23;0.80;;;;;;;;;;4736853;30;20223;-83
2022/01/04 14:48:25;;;;;;;2.73;0.90;;;;;;;;;;4737085;30;20208;-83
2022/01/04 14:51:29;;;;;;;4.57;2.10;;;;;;;;;;4734355;30;20651;-83
2022/01/04 14:54:33;;;;;;;3.97;1.20;;;;;;;;;;4747030;30;20238;-82
2022/01/04 14:57:38;;;;;;;1.00;0.77;;;;;;;;;;4732797;30;20199;-83
2022/01/04 15:00:42;;;;;;;4.40;1.23;;;;;;;;;;4754832;30;20191;-83
2022/01/04 15:03:46;;;;;;;5.47;1.20;;;;;;;;;;4753718;30;20222;-82
2022/01/04 15:06:52;;;;;;;2.73;1.13;;;;;;;;;;4738261;30;20196;-83
2022/01/04 15:09:58;;;;;;;2.47;1.00;;;;;;;;;;4726859;30;20183;-83
2022/01/04 15:13:04;;;;;;;1.10;0.97;;;;;;;;;;4736401;30;20216;-83
2022/01/04 15:16:09;;;;;;;1.13;0.83;;;;;;;;;;4733210;30;20192;-85
2022/01/04 15:19:13;;;;;;;0.70;0.70;;;;;;;;;;4743817;30;20624;-84
2022/01/04 15:22:17;;;;;;;1.47;0.97;;;;;;;;;;4743694;30;20647;-85
2022/01/04 15:25:24;;;;;;;3.13;0.80;;;;;;;;;;4738489;30;20664;-85
2022/01/04 15:28:28;;;;;;;1.60;0.90;;;;;;;;;;4752136;30;20187;-85
2022/01/04 15:31:33;;;;;;;1.20;0.90;;;;;;;;;;4742999;30;20206;-86
2022/01/04 15:34:37;;;;;;;1.90;0.60;;;;;;;;;;4742964;30;20239;-86
2022/01/04 15:37:41;;;;;;;1.30;0.73;;;;;;;;;;4734705;30;20708;-86
2022/01/04 15:40:45;;;;;;;0.90;0.70;;;;;;;;;;4741937;30;20210;-86
2022/01/04 15:43:50;;;;;;;1.97;1.10;;;;;;;;;;4752647;30;20226;-85
2022/01/04 15:46:54;;;;;;;1.67;1.03;;;;;;;;;;4752521;30;20194;-86
2022/01/04 15:49:58;;;;;;;3.10;0.70;;;;;;;;;;4743086;30;20207;-86
2022/01/04 15:53:02;;;;;;;1.90;0.73;;;;;;;;;;4742419;30;20234;-86
2022/01/04 15:56:06;;;;;;;1.40;0.77;;;;;;;;;;4738184;30;20203;-85
2022/01/04 15:59:11;;;;;;;2.77;0.80;;;;;;;;;;4734686;30;20207;-86
2022/01/04 16:02:15;;;;;;;1.63;0.90;;;;;;;;;;4725195;30;20208;-86
2022/01/04 16:05:19;;;;;;;1.67;0.70;;;;;;;;;;4741505;30;20227;-88
2022/01/04 16:08:24;;;;;;;1.10;0.80;;;;;;;;;;4751812;30;20691;-86
2022/01/04 16:11:28;;;;;;;1.90;0.70;;;;;;;;;;4741369;30;20202;-86
2022/01/04 16:14:32;;;;;;;2.47;0.60;;;;;;;;;;4725314;30;20243;-86
2022/01/04 16:17:44;;;;;;;3.23;0.87;;;;;;;;;;4748415;30;20203;-86
2022/01/04 16:24:19;;;;;;;2.00;0.80;;;;;;;;;;4735654;30;20223;-86
2022/01/04 16:27:31;;;;;;;1.40;0.87;;;;;;;;;;4724931;30;20215;-85
2022/01/04 16:30:35;;;;;;;2.00;0.97;;;;;;;;;;4735065;30;20199;-86
2022/01/04 16:33:39;;;;;;;0.80;0.80;;;;;;;;;;4734651;30;20239;-86
2022/01/04 16:36:43;;;;;;;2.73;0.90;;;;;;;;;;4726136;30;20207;-86
2022/01/04 16:39:48;;;;;;;1.17;0.80;;;;;;;;;;4752486;30;20210;-86
2022/01/04 16:42:53;;;;;;;1.50;0.83;;;;;;;;;;4752242;30;20667;-86
2022/01/04 16:45:58;;;;;;;2.33;0.83;;;;;;;;;;4726740;30;20687;-85
2022/01/04 16:49:03;;;;;;;1.60;1.20;;;;;;;;;;4741729;30;20195;-86
2022/01/04 16:52:07;;;;;;;2.23;1.00;;;;;;;;;;4735743;30;20204;-86
2022/01/04 16:55:14;;;;;;;0.73;0.73;;;;;;;;;;4724105;30;20235;-87
2022/01/04 16:58:18;;;;;;;0.77;0.77;;;;;;;;;;4734328;30;20187;-86
2022/01/04 17:01:22;;;;;;;2.67;1.77;;;;;;;;;;4724663;30;20192;-86
2022/01/04 17:04:29;;;;;;;2.03;1.20;;;;;;;;;;4734062;30;20231;-85
2022/01/04 17:07:33;;;;;;;5.80;1.90;;;;;;;;;;4728249;30;20203;-86
2022/01/04 17:10:50;;;;;;;1.20;0.90;;;;;;;;;;4724782;30;20525;-86
2022/01/04 17:17:18;;;;;;;0.90;0.60;;;;;;;;;;4724537;30;20192;-86
2022/01/04 17:20:22;;;;;;;0.60;0.50;;;;;;;;;;4724778;30;20537;-86
2022/01/04 17:23:26;;;;;;;0.50;0.50;;;;;;;;;;4723963;30;20227;-86
2022/01/04 17:26:30;;;;;;;1.20;1.07;;;;;;;;;;4724030;30;20207;-86
2022/01/04 17:29:34;;;;;;;2.10;0.80;;;;;;;;;;4725521;30;20195;-87
2022/01/04 17:32:39;;;;;;;1.10;1.00;;;;;;;;;;4727514;30;20191;-87
2022/01/04 17:35:43;;;;;;;3.07;1.60;;;;;;;;;;4727595;30;20187;-86
2022/01/04 17:38:48;;;;;;;2.10;1.73;;;;;;;;;;4737384;30;20191;-87
2022/01/04 17:41:52;;;;;;;2.60;2.10;;;;;;;;;;4737513;30;20188;-87
2022/01/04 17:44:56;;;;;;;2.50;1.93;;;;;;;;;;4727462;30;20215;-88
2022/01/04 17:48:02;;;;;;;2.03;1.67;;;;;;;;;;4729074;30;20188;-87
2022/01/04 17:51:06;;;;;;;2.97;1.57;;;;;;;;;;4744558;30;20671;-87
2022/01/04 17:54:12;;;;;;;1.00;0.80;;;;;;;;;;4731445;30;20235;-87
2022/01/04 17:57:16;;;;;;;4.13;2.70;;;;;;;;;;4727368;30;20192;-87
2022/01/04 18:00:20;;;;;;;46.87;21.90;;;;;;;;;;4717024;30;20188;-87
2022/01/04 18:03:24;;;;;;;5.90;3.27;;;;;;;;;;4726869;30;20235;-86
2022/01/04 18:06:29;;;;;;;1.67;0.80;;;;;;;;;;4727227;30;20196;-87
2022/01/04 18:09:33;;;;;;;0.60;0.60;;;;;;;;;;4717029;30;20199;-87
2022/01/04 18:12:38;;;;;;;3.60;2.40;;;;;;;;;;4726913;30;20196;-87
2022/01/04 18:15:42;;;;;;;2.03;1.40;;;;;;;;;;4716608;30;20223;-87
2022/01/04 18:18:46;;;;;;;0.40;0.40;;;;;;;;;;4726363;30;20197;-86
2022/01/04 18:21:51;;;;;;;0.33;0.33;;;;;;;;;;4736989;30;20195;-87
2022/01/04 18:24:55;;;;;;;0.70;0.50;;;;;;;;;;4736770;30;20219;-87
2022/01/04 18:27:59;;;;;;;0.40;0.40;;;;;;;;;;4726681;30;20199;-87
2022/01/04 18:31:03;;;;;;;0.37;0.37;;;;;;;;;;4736309;30;20207;-87
2022/01/04 18:34:07;;;;;;;0.50;0.50;;;;;;;;;;4736338;30;20239;-87
2022/01/04 18:37:12;;;;;;;0.50;0.43;;;;;;;;;;4736732;30;20188;-87
2022/01/04 18:40:16;;;;;;;0.40;0.40;;;;;;;;;;4735763;30;20208;-87
2022/01/04 18:43:20;;;;;;;0.30;0.30;;;;;;;;;;4735633;30;20226;-87
2022/01/04 18:46:25;;;;;;;0.60;0.60;;;;;;;;;;4743767;30;20207;-87
2022/01/04 18:49:29;;;;;;;0.60;0.60;;;;;;;;;;4743720;30;20203;-86
2022/01/04 18:52:33;;;;;;;0.50;0.50;;;;;;;;;;4754095;30;20207;-86
2022/01/04 18:55:37;;;;;;;0.50;0.50;;;;;;;;;;4754022;30;20675;-86
2022/01/04 18:58:41;;;;;;;0.70;0.70;;;;;;;;;;4754040;30;20191;-87